This is the latest recevied weather packets stored in our database for station/object KI4BIY. If no packets are shown the sender has not sent any weather packets the latest 1 day(s).
| Time | Temp. | Humidity | Pressure | Rain* | Wind** | Luminosity | Snow |
|---|---|---|---|---|---|---|---|
| 1778001362 | 15.56° C | 99% | 1008.9 hPa | 43.69 mm | 0.45 m/s, 27° | 8 W/m² | - |
| 1778001060 | 15.56° C | 99% | 1009 hPa | 15.49 mm | 0.89 m/s, 195° | 22 W/m² | - |
| 1778000757 | 15.56° C | 99% | 1008.8 hPa | 7.87 mm | 0.45 m/s, 265° | 32 W/m² | - |
| 1778000453 | 15.56° C | 99% | 1008.5 hPa | 3.05 mm | 0.89 m/s, 201° | 77 W/m² | - |
| 1778000148 | 15.56° C | 99% | 1009.2 hPa | 3.05 mm | 0.89 m/s, 142° | 23 W/m² | - |
| 1777999844 | 15.56° C | 99% | 1009 hPa | 6.1 mm | 1.34 m/s, 218° | 28 W/m² | - |
| 1777999540 | 15.56° C | 99% | 1009 hPa | 10.67 mm | 0.45 m/s, 226° | 78 W/m² | - |
| 1777999238 | 15.56° C | 99% | 1008.9 hPa | 10.67 mm | 1.34 m/s, 192° | 72 W/m² | - |
| 1777998937 | 15.56° C | 99% | 1009.2 hPa | 3.05 mm | 0.89 m/s, 208° | 36 W/m² | - |
| 1777998633 | 15.56° C | 99% | 1009.5 hPa | 3.05 mm | 1.34 m/s, 195° | 28 W/m² | - |
| 1777998332 | 15.56° C | 99% | 1009.2 hPa | 1.78 mm | 0.45 m/s, 247° | 33 W/m² | - |
| 1777998029 | 15.56° C | 99% | 1009.2 hPa | 0 mm | 0.45 m/s, 248° | 30 W/m² | - |
| 1777997726 | 15.56° C | 99% | 1009.1 hPa | 0 mm | 1.34 m/s, 199° | 39 W/m² | - |
| 1777997423 | 15.56° C | 99% | 1009 hPa | 0 mm | 0.89 m/s, 224° | 26 W/m² | - |
| 1777997121 | 15.56° C | 99% | 1009 hPa | 1.27 mm | 0.45 m/s, 265° | 22 W/m² | - |
| 1777996818 | 15.56° C | 99% | 1009.2 hPa | 3.05 mm | 1.34 m/s, 199° | 37 W/m² | - |
| 1777996513 | 15.56° C | 99% | 1008.8 hPa | 4.83 mm | 0.45 m/s, 215° | 62 W/m² | - |
| 1777996210 | 15° C | 99% | 1008.8 hPa | 4.32 mm | 1.34 m/s, 196° | 36 W/m² | - |
| 1777995907 | 15° C | 99% | 1009.2 hPa | 6.1 mm | 0.89 m/s, 179° | 15 W/m² | - |
| 1777995603 | 15° C | 99% | 1009.3 hPa | 9.65 mm | 0.89 m/s, 229° | 17 W/m² | - |
| 1777995301 | 15° C | 99% | 1009.3 hPa | 9.65 mm | 1.34 m/s, 216° | 15 W/m² | - |
| 1777994997 | 15° C | 99% | 1009.4 hPa | 6.1 mm | 0.45 m/s, 204° | 10 W/m² | - |
| 1777994694 | 15° C | 99% | 1009.6 hPa | 4.32 mm | 0.45 m/s, 239° | 11 W/m² | - |
| 1777994389 | 15° C | 99% | 1009.5 hPa | 3.05 mm | 0.45 m/s, 220° | 9 W/m² | - |
| 1777994085 | 15° C | 99% | 1009.3 hPa | 3.05 mm | 0.45 m/s, 253° | 12 W/m² | - |
* Rain latest hour (hover to see other rain measurements)
** Current wind speed in m/s (hover to see current wind gust speed)